Time;durP1;ratioP1;P1;durP2;ratioP2;P2;SDS_P1;SDS_P2;PMS_P1;PMS_P2;Temp;Humidity;BMP_temperature;BMP_pressure;BME280_temperature;BME280_humidity;BME280_pressure;Samples;Min_cycle;Max_cycle;Signal;HPM_P1;HPM_P2
2022/06/04 09:45:01;;;;;;;3.02;0.42;;;;;;;25.83;100.00;100132.98;1791377;78;22268;-61
2022/06/04 09:47:49;;;;;;;0.20;0.20;;;;;;;25.60;100.00;100145.06;1764077;79;21056;-58
2022/06/04 09:50:30;;;;;;;0.50;0.20;;;;;;;25.46;100.00;100129.92;1761923;79;21376;-59
2022/06/04 09:53:07;;;;;;;0.20;0.20;;;;;;;25.38;100.00;100135.87;1763412;79;21479;-57
2022/06/04 09:55:34;;;;;;;0.20;0.20;;;;;;;25.32;100.00;100142.03;1760850;79;21320;-62
2022/06/04 09:58:29;;;;;;;0.20;0.20;;;;;;;25.21;100.00;100132.98;1745632;79;21594;-64
2022/06/04 10:01:07;;;;;;;;;;;;;;;25.11;100.00;100133.57;1738634;80;21009;-59
2022/06/04 10:03:37;;;;;;;0.35;0.35;;;;;;;24.97;100.00;100129.13;1734216;80;22699;-57
2022/06/04 10:06:19;;;;;;;0.30;0.20;;;;;;;24.89;100.00;100128.00;1734473;80;21013;-59
2022/06/04 10:11:54;;;;;;;0.20;0.20;;;;;;;24.86;100.00;100121.92;1737318;80;21416;-56
2022/06/04 10:14:37;;;;;;;0.25;0.20;;;;;;;24.83;100.00;100120.38;1720462;80;21061;-55
2022/06/04 10:17:09;;;;;;;0.95;0.28;;;;;;;24.79;100.00;100119.45;1725835;80;21147;-59
2022/06/04 10:19:36;;;;;;;0.23;0.20;;;;;;;24.71;100.00;100118.84;1729659;80;21096;-57
2022/06/04 10:22:13;;;;;;;0.20;0.20;;;;;;;24.67;100.00;100111.91;1730330;80;21039;-55
2022/06/04 10:24:55;;;;;;;0.20;0.20;;;;;;;24.64;100.00;100110.86;1734201;80;21649;-56
2022/06/04 10:28:08;;;;;;;0.50;0.20;;;;;;;24.62;100.00;100103.77;1736422;80;20977;-56
2022/06/04 10:30:57;;;;;;;2.65;0.20;;;;;;;24.60;100.00;100100.30;1692951;82;21460;-61
2022/06/04 10:33:36;;;;;;;0.30;0.20;;;;;;;24.58;100.00;100105.98;1731243;80;21430;-57
2022/06/04 10:36:08;;;;;;;0.30;0.20;;;;;;;24.50;100.00;100103.98;1725966;80;21064;-59
2022/06/04 10:38:57;;;;;;;0.20;0.20;;;;;;;24.42;100.00;100098.38;1727619;80;21065;-57
2022/06/04 10:41:51;;;;;;;5.65;0.40;;;;;;;24.36;100.00;100097.63;1730875;80;21089;-61
2022/06/04 10:44:38;;;;;;;0.40;0.20;;;;;;;24.27;100.00;100094.42;1719675;80;21218;-61
2022/06/04 10:47:17;;;;;;;1.60;0.20;;;;;;;24.18;100.00;100101.31;1722563;81;21506;-59
2022/06/04 10:50:13;;;;;;;0.60;0.17;;;;;;;24.15;100.00;100099.75;1711091;80;21635;-60
2022/06/04 10:52:46;;;;;;;0.20;0.20;;;;;;;24.11;100.00;100093.68;1700565;81;21074;-60
2022/06/04 10:55:24;;;;;;;0.20;0.20;;;;;;;24.11;100.00;100099.69;1702957;81;21000;-58
2022/06/04 10:58:36;;;;;;;0.20;0.20;;;;;;;24.02;100.00;100089.09;1711329;81;21121;-59
2022/06/04 11:01:08;;;;;;;0.20;0.20;;;;;;;23.98;100.00;100095.92;1713930;80;21440;-55
2022/06/04 11:04:00;;;;;;;7.58;0.35;;;;;;;23.95;100.00;100092.59;1714803;81;21611;-60
2022/06/04 11:06:30;;;;;;;0.30;0.20;;;;;;;23.93;100.00;100098.23;1712769;80;21131;-61
2022/06/04 11:09:04;;;;;;;1.85;0.20;;;;;;;23.89;100.00;100095.45;1702983;82;21109;-58
2022/06/04 11:11:37;;;;;;;0.80;0.20;;;;;;;23.84;100.00;100088.14;1704672;80;21156;-62
2022/06/04 11:14:17;;;;;;;0.20;0.20;;;;;;;23.82;100.00;100092.08;1715353;80;21405;-57
2022/06/04 11:16:59;;;;;;;0.30;0.30;;;;;;;23.83;100.00;100089.16;1713460;80;22431;-60
2022/06/04 11:19:39;;;;;;;1.40;0.20;;;;;;;23.85;100.00;100084.38;1719190;81;21717;-56
2022/06/04 11:22:16;;;;;;;0.20;0.10;;;;;;;23.87;100.00;100086.48;1714627;80;21105;-56
2022/06/04 11:24:48;;;;;;;0.30;0.20;;;;;;;23.87;100.00;100082.86;1719977;80;21265;-56
2022/06/04 11:27:38;;;;;;;1.20;0.20;;;;;;;23.86;100.00;100081.13;1695018;82;21025;-58
2022/06/04 11:30:09;;;;;;;0.20;0.20;;;;;;;23.85;100.00;100075.27;1715208;82;20927;-57
2022/06/04 11:32:55;;;;;;;1.85;0.20;;;;;;;23.87;100.00;100065.86;1706652;81;20982;-60
2022/06/04 11:35:48;;;;;;;4.47;1.05;;;;;;;23.91;100.00;100053.53;1718630;80;21401;-60
2022/06/04 11:38:23;;;;;;;2.17;0.20;;;;;;;23.91;100.00;100060.41;1719133;80;21122;-58
2022/06/04 11:41:19;;;;;;;1.37;0.20;;;;;;;23.84;100.00;100055.16;1717323;80;20986;-58
2022/06/04 11:44:16;;;;;;;0.20;0.20;;;;;;;23.83;100.00;100056.68;1707422;80;20976;-57
2022/06/04 11:46:57;;;;;;;1.07;0.20;;;;;;;23.81;100.00;100054.61;1696685;82;20974;-58
2022/06/04 11:49:41;;;;;;;0.20;0.20;;;;;;;23.78;100.00;100049.41;1675272;83;21102;-57
2022/06/04 11:52:26;;;;;;;0.33;0.33;;;;;;;23.72;100.00;100049.01;1704458;82;21294;-56
2022/06/04 11:55:14;;;;;;;0.30;0.20;;;;;;;23.68;100.00;100037.94;1700927;82;21074;-59
2022/06/04 11:58:12;;;;;;;0.20;0.20;;;;;;;23.66;100.00;100034.47;1667314;83;21069;-60
2022/06/04 12:00:40;;;;;;;1.17;0.20;;;;;;;23.65;100.00;100035.98;1685688;82;21175;-56
2022/06/04 12:03:40;;;;;;;0.20;0.20;;;;;;;23.69;100.00;100032.81;1645893;85;21118;-57
2022/06/04 12:06:21;;;;;;;0.55;0.20;;;;;;;23.74;100.00;100030.45;1658236;84;21174;-59
2022/06/04 12:08:54;;;;;;;0.20;0.20;;;;;;;23.78;100.00;100020.04;1663220;84;21033;-56
2022/06/04 12:11:47;;;;;;;0.20;0.20;;;;;;;23.83;100.00;100031.44;1657420;84;20969;-56
2022/06/04 12:14:52;;;;;;;0.23;0.23;;;;;;;23.85;100.00;100034.03;1655720;84;21139;-57
2022/06/04 12:17:24;;;;;;;0.90;0.20;;;;;;;23.86;100.00;100037.14;1659133;84;21559;-58
2022/06/04 12:26:35;;;;;;;0.35;0.20;;;;;;;23.94;100.00;100018.00;1658620;84;21105;-58
2022/06/04 12:29:32;;;;;;;0.20;0.20;;;;;;;23.94;100.00;100014.75;1656773;84;21120;-58
2022/06/04 12:32:02;;;;;;;0.20;0.20;;;;;;;23.94;100.00;100009.25;1653171;84;21093;-59
2022/06/04 12:34:37;;;;;;;0.13;0.10;;;;;;;23.99;100.00;100010.16;1658807;84;21131;-57
2022/06/04 12:37:06;;;;;;;0.20;0.20;;;;;;;24.01;100.00;100002.11;1657509;84;21098;-57
2022/06/04 12:39:39;;;;;;;0.10;0.10;;;;;;;24.03;100.00;100005.58;1656823;84;21499;-59
2022/06/04 12:42:22;;;;;;;0.42;0.20;;;;;;;24.04;100.00;100003.19;1657444;84;21180;-57
2022/06/04 12:45:05;;;;;;;0.30;0.20;;;;;;;24.07;100.00;100002.86;1681375;83;21005;-55
2022/06/04 12:47:34;;;;;;;0.90;0.20;;;;;;;24.13;100.00;100002.78;1701077;82;21675;-55
2022/06/04 12:50:27;;;;;;;0.50;0.20;;;;;;;24.16;100.00;99989.23;1700033;82;21083;-62
2022/06/04 12:53:07;;;;;;;0.37;0.30;;;;;;;24.17;100.00;99989.56;1696540;82;21561;-62
2022/06/04 12:55:49;;;;;;;0.50;0.50;;;;;;;24.11;100.00;99985.56;1688525;83;20974;-59
2022/06/04 12:58:41;;;;;;;1.55;0.25;;;;;;;24.03;100.00;99978.59;1698573;82;21150;-60
2022/06/04 13:01:23;;;;;;;0.33;0.30;;;;;;;24.00;100.00;99977.01;1696656;82;21221;-60
2022/06/04 13:04:05;;;;;;;0.50;0.40;;;;;;;24.02;100.00;99975.48;1704061;82;21083;-59
2022/06/04 13:07:04;;;;;;;0.72;0.30;;;;;;;24.03;100.00;99975.34;1685195;82;21063;-61
2022/06/04 13:09:53;;;;;;;0.75;0.35;;;;;;;24.06;100.00;99973.66;1701596;82;21477;-59
2022/06/04 13:12:27;;;;;;;2.17;0.30;;;;;;;24.06;100.00;99966.80;1698078;82;21083;-61
2022/06/04 13:15:16;;;;;;;1.67;0.30;;;;;;;24.06;100.00;99965.42;1703143;82;21237;-62
2022/06/04 13:17:48;;;;;;;0.37;0.25;;;;;;;24.06;100.00;99963.17;1680360;82;21470;-64
2022/06/04 13:20:46;;;;;;;0.30;0.20;;;;;;;24.06;100.00;99960.42;1697677;82;21079;-61
2022/06/04 13:23:36;;;;;;;0.68;0.17;;;;;;;24.03;100.00;99955.22;1699699;82;21102;-60
2022/06/04 13:26:32;;;;;;;0.37;0.20;;;;;;;23.97;100.00;99953.97;1705431;82;21066;-61
2022/06/04 13:29:00;;;;;;;0.30;0.30;;;;;;;23.96;100.00;99952.74;1697535;82;21110;-62
2022/06/04 13:31:30;;;;;;;0.20;0.20;;;;;;;24.00;100.00;99955.02;1700834;82;21063;-60
2022/06/04 13:34:00;;;;;;;0.15;0.15;;;;;;;24.03;100.00;99952.47;1700718;82;21491;-59
2022/06/04 13:36:29;;;;;;;0.20;0.20;;;;;;;24.06;100.00;99948.91;1698023;82;22207;-62
2022/06/04 13:39:00;;;;;;;0.20;0.10;;;;;;;24.10;100.00;99948.08;1698816;82;21437;-58
2022/06/04 13:44:28;;;;;;;0.20;0.20;;;;;;;24.14;100.00;99949.52;1701273;82;21051;-63
2022/06/04 13:47:18;;;;;;;0.20;0.20;;;;;;;24.15;100.00;99945.75;1701611;82;21561;-63
2022/06/04 13:49:48;;;;;;;0.20;0.20;;;;;;;24.08;100.00;99937.23;1701652;82;21663;-59
2022/06/04 13:52:22;;;;;;;0.68;0.10;;;;;;;24.06;100.00;99932.42;1701129;82;21090;-61
2022/06/04 13:54:55;;;;;;;2.37;0.20;;;;;;;24.08;100.00;99922.61;1687538;83;21465;-61
2022/06/04 13:57:31;;;;;;;0.35;0.20;;;;;;;24.14;100.00;99919.26;1662817;84;21148;-59
2022/06/04 14:00:02;;;;;;;0.20;0.20;;;;;;;24.21;100.00;99919.52;1689691;83;21058;-66
2022/06/04 14:02:32;;;;;;;2.37;1.15;;;;;;;24.24;100.00;99924.22;1682200;83;21574;-60
2022/06/04 14:07:47;;;;;;;0.45;0.40;;;;;;;24.23;100.00;99912.86;1683912;83;21254;-62
2022/06/04 14:10:17;;;;;;;0.33;0.30;;;;;;;24.23;100.00;99909.23;1677412;83;21069;-61
2022/06/04 14:13:14;;;;;;;0.30;0.20;;;;;;;24.26;100.00;99907.53;1679014;83;21041;-59
2022/06/04 14:16:01;;;;;;;0.50;0.40;;;;;;;24.27;100.00;99907.89;1680957;83;21030;-64
2022/06/04 14:18:53;;;;;;;0.53;0.30;;;;;;;24.24;100.00;99902.72;1675964;83;21133;-65
2022/06/04 14:22:00;;;;;;;1.02;0.42;;;;;;;24.22;100.00;99904.75;1674850;83;21256;-62
2022/06/04 14:24:51;;;;;;;0.47;0.20;;;;;;;24.12;100.00;99901.53;1680724;83;20899;-62
2022/06/04 14:27:47;;;;;;;0.30;0.25;;;;;;;24.11;100.00;99901.69;1640779;83;21002;-63
2022/06/04 14:30:23;;;;;;;3.70;0.20;;;;;;;24.11;100.00;99900.31;1684377;83;20879;-67
2022/06/04 14:32:54;;;;;;;0.30;0.20;;;;;;;24.08;100.00;99898.73;1680595;83;21054;-62
2022/06/04 14:35:36;;;;;;;0.20;0.20;;;;;;;24.07;100.00;99897.54;1660706;83;21707;-63
2022/06/04 14:38:16;;;;;;;0.20;0.20;;;;;;;24.08;100.00;99895.98;1678049;83;20919;-63
2022/06/04 14:41:08;;;;;;;0.42;0.20;;;;;;;24.09;100.00;99893.59;1675569;83;21347;-65
2022/06/04 14:44:09;;;;;;;0.20;0.20;;;;;;;24.09;100.00;99898.22;1676338;83;21046;-62
2022/06/04 14:46:58;;;;;;;0.82;0.20;;;;;;;24.05;100.00;99899.06;1678072;83;21004;-63
2022/06/04 14:49:51;;;;;;;0.45;0.28;;;;;;;24.03;100.00;99900.23;1684360;83;22245;-61
2022/06/04 14:52:35;;;;;;;0.20;0.20;;;;;;;23.99;100.00;99895.55;1680478;83;21613;-60
2022/06/04 14:55:10;;;;;;;0.75;0.30;;;;;;;23.92;100.00;99897.19;1676043;83;21521;-60
2022/06/04 14:58:13;;;;;;;1.67;0.20;;;;;;;23.89;100.00;99900.27;1678319;83;21088;-65
2022/06/04 15:01:28;;;;;;;0.55;0.20;;;;;;;23.85;100.00;99896.59;1667904;83;21026;-61
2022/06/04 15:04:26;;;;;;;3.37;0.20;;;;;;;23.74;100.00;99894.41;1678418;83;21274;-62
2022/06/04 15:07:22;;;;;;;0.80;0.20;;;;;;;23.66;100.00;99897.58;1660024;83;21061;-66
2022/06/04 15:10:21;;;;;;;0.30;0.28;;;;;;;23.61;100.00;99893.93;1673829;83;21534;-62
2022/06/04 15:13:17;;;;;;;0.30;0.20;;;;;;;23.54;100.00;99890.07;1676100;83;21113;-61
2022/06/04 15:16:10;;;;;;;0.30;0.20;;;;;;;23.48;100.00;99883.76;1677029;83;21072;-64
2022/06/04 15:19:14;;;;;;;1.85;0.30;;;;;;;23.45;100.00;99876.35;1675733;83;21542;-62
2022/06/04 15:21:57;;;;;;;;;;;;;;;23.42;100.00;99872.52;1680382;83;21073;-62
2022/06/04 15:24:50;;;;;;;0.30;0.20;;;;;;;23.40;100.00;99876.28;1675735;83;20243;-63
2022/06/04 15:27:49;;;;;;;0.30;0.30;;;;;;;23.37;100.00;99870.25;1675564;83;21073;-61
2022/06/04 15:33:53;;;;;;;1.20;0.90;;;;;;;23.32;100.00;99867.95;1676830;83;21247;-60
2022/06/04 15:36:38;;;;;;;10.38;8.30;;;;;;;23.32;100.00;99869.31;1676012;83;21081;-64
2022/06/04 15:39:16;;;;;;;5.87;5.35;;;;;;;23.31;100.00;99864.84;1686319;83;21077;-60
2022/06/04 15:41:55;;;;;;;0.88;0.50;;;;;;;23.30;100.00;99859.02;1679706;83;21077;-61
2022/06/04 15:44:23;;;;;;;5.75;5.40;;;;;;;23.31;100.00;99857.97;1677207;83;21528;-61
2022/06/04 15:46:58;;;;;;;0.60;0.60;;;;;;;23.29;100.00;99851.80;1678115;83;21064;-61
2022/06/04 15:55:50;;;;;;;4.03;0.50;;;;;;;23.33;100.00;99866.06;1678128;83;20975;-61
2022/06/04 15:58:20;;;;;;;1.95;0.50;;;;;;;23.40;100.00;99871.30;1654802;83;21073;-59
2022/06/04 16:00:53;;;;;;;2.33;1.98;;;;;;;23.44;100.00;99865.88;1675323;83;21077;-61
2022/06/04 16:03:35;;;;;;;1.00;0.78;;;;;;;23.48;100.00;99868.65;1647289;84;21300;-59
2022/06/04 16:06:21;;;;;;;0.98;0.50;;;;;;;23.55;100.00;99870.33;1659762;84;21091;-61
2022/06/04 16:08:54;;;;;;;0.80;0.78;;;;;;;23.59;100.00;99871.23;1653100;84;22445;-60
2022/06/04 16:11:59;;;;;;;9.25;8.35;;;;;;;23.62;100.00;99866.81;1660278;84;21566;-60
2022/06/04 16:14:54;;;;;;;3.85;3.62;;;;;;;23.63;100.00;99863.55;1653722;84;21089;-61
2022/06/04 16:17:59;;;;;;;4.22;2.42;;;;;;;23.63;100.00;99867.17;1691935;82;21065;-63
2022/06/04 16:20:46;;;;;;;1.10;1.00;;;;;;;23.58;100.00;99863.14;1688979;82;21080;-59
2022/06/04 16:23:36;;;;;;;1.52;0.55;;;;;;;23.51;100.00;99864.27;1691093;82;21127;-60
2022/06/04 16:26:24;;;;;;;1.00;0.30;;;;;;;23.46;100.00;99861.09;1691393;82;21108;-59
2022/06/04 16:28:56;;;;;;;0.53;0.40;;;;;;;23.42;100.00;99863.78;1690445;82;21202;-58
2022/06/04 16:31:34;;;;;;;2.25;0.60;;;;;;;23.38;100.00;99859.12;1687286;82;21128;-61
2022/06/04 16:34:06;;;;;;;0.70;0.60;;;;;;;23.34;100.00;99864.55;1693494;82;21068;-62
2022/06/04 16:36:52;;;;;;;0.40;0.40;;;;;;;23.29;100.00;99857.28;1690535;82;21100;-58
2022/06/04 16:39:25;;;;;;;0.93;0.30;;;;;;;23.23;100.00;99861.98;1690050;82;21418;-58
2022/06/04 16:42:07;;;;;;;0.40;0.30;;;;;;;23.16;100.00;99860.88;1689699;82;21664;-56
2022/06/04 16:44:54;;;;;;;2.72;0.40;;;;;;;23.08;100.00;99858.02;1693078;82;21112;-57
2022/06/04 16:47:47;;;;;;;1.40;0.40;;;;;;;23.01;100.00;99861.02;1694464;82;21092;-56
2022/06/04 16:50:15;;;;;;;4.22;0.40;;;;;;;22.95;100.00;99865.23;1688518;82;21148;-55
2022/06/04 16:52:44;;;;;;;0.98;0.33;;;;;;;22.88;100.00;99864.62;1692023;82;21079;-57
2022/06/04 16:55:15;;;;;;;0.90;0.40;;;;;;;22.81;100.00;99864.83;1696197;82;21108;-57
2022/06/04 16:57:43;;;;;;;0.90;0.30;;;;;;;22.73;100.00;99863.30;1686140;82;20984;-61
2022/06/04 17:00:15;;;;;;;0.70;0.30;;;;;;;22.66;100.00;99858.92;1685232;82;21168;-61
2022/06/04 17:03:27;;;;;;;0.30;0.23;;;;;;;22.58;100.00;99867.89;1686279;82;21024;-60
2022/06/04 17:06:25;;;;;;;0.37;0.20;;;;;;;22.52;100.00;99862.14;1657042;84;21114;-60
2022/06/04 17:09:21;;;;;;;5.10;0.30;;;;;;;22.44;100.00;99859.27;1676891;83;21234;-60
2022/06/04 17:12:21;;;;;;;1.32;0.30;;;;;;;22.37;100.00;99866.36;1685883;82;20922;-59
2022/06/04 17:15:15;;;;;;;2.47;0.30;;;;;;;22.28;100.00;99868.09;1690049;82;20981;-60
2022/06/04 17:18:13;;;;;;;0.60;0.25;;;;;;;22.22;100.00;99863.17;1682222;82;21048;-59
2022/06/04 17:21:09;;;;;;;1.45;0.20;;;;;;;22.14;100.00;99864.41;1697618;82;20938;-60
2022/06/04 17:23:44;;;;;;;0.70;0.20;;;;;;;22.07;100.00;99861.38;1690629;82;21472;-60
2022/06/04 17:26:36;;;;;;;1.98;0.30;;;;;;;21.98;100.00;99855.39;1690126;82;20930;-60
2022/06/04 17:29:12;;;;;;;0.47;0.23;;;;;;;21.90;100.00;99857.95;1689408;82;21002;-61
2022/06/04 17:31:59;;;;;;;1.65;0.20;;;;;;;21.82;100.00;99849.58;1693868;82;21131;-60
2022/06/04 17:34:33;;;;;;;8.73;0.40;;;;;;;21.76;100.00;99851.03;1692917;82;21009;-59
2022/06/04 17:37:25;;;;;;;4.90;0.45;;;;;;;21.68;100.00;99848.64;1702613;82;21540;-60
2022/06/04 17:40:09;;;;;;;1.17;0.30;;;;;;;21.62;100.00;99843.70;1640564;85;20942;-59
2022/06/04 17:42:37;;;;;;;0.50;0.40;;;;;;;21.55;100.00;99843.92;1693456;82;21034;-59
2022/06/04 17:45:04;;;;;;;0.40;0.30;;;;;;;21.44;100.00;99843.02;1696651;82;21076;-58
2022/06/04 17:47:31;;;;;;;4.47;0.50;;;;;;;21.39;100.00;99846.70;1693166;82;21324;-59
2022/06/04 17:49:58;;;;;;;1.00;0.40;;;;;;;21.32;100.00;99846.03;1695945;82;21253;-58
2022/06/04 17:52:25;;;;;;;0.60;0.40;;;;;;;21.26;100.00;99853.45;1689819;82;21148;-59
2022/06/04 17:54:53;;;;;;;1.15;0.40;;;;;;;21.19;100.00;99853.61;1692968;82;21131;-58
2022/06/04 17:57:20;;;;;;;1.60;0.40;;;;;;;21.12;100.00;99851.91;1686905;82;21089;-58
2022/06/04 17:59:47;;;;;;;4.28;0.47;;;;;;;21.04;100.00;99851.23;1690862;82;21196;-58
2022/06/04 18:02:14;;;;;;;6.12;0.50;;;;;;;20.94;100.00;99848.95;1688178;82;21135;-59
2022/06/04 18:04:41;;;;;;;3.65;0.42;;;;;;;20.85;100.00;99852.50;1686263;82;21037;-59
2022/06/04 18:07:08;;;;;;;4.75;0.60;;;;;;;20.76;100.00;99858.80;1690221;83;21096;-59
2022/06/04 18:09:34;;;;;;;1.57;0.60;;;;;;;20.67;100.00;99859.11;1688985;83;21502;-59
2022/06/04 18:12:01;;;;;;;2.50;0.30;;;;;;;20.62;100.00;99852.32;1684107;83;21455;-59
2022/06/04 18:14:28;;;;;;;2.05;0.37;;;;;;;20.55;100.00;99848.40;1689470;83;21128;-59
2022/06/04 18:16:56;;;;;;;0.72;0.40;;;;;;;20.49;100.00;99851.68;1689769;83;21108;-58
2022/06/04 18:19:22;;;;;;;1.67;0.50;;;;;;;20.44;100.00;99855.30;1683588;83;21512;-59
2022/06/04 18:21:50;;;;;;;5.70;0.50;;;;;;;20.36;100.00;99862.30;1691685;83;21103;-58
2022/06/04 18:24:18;;;;;;;0.85;0.40;;;;;;;20.28;100.00;99865.30;1692763;83;21100;-58
2022/06/04 18:26:46;;;;;;;3.55;0.40;;;;;;;20.18;100.00;99861.13;1685474;83;21794;-59
2022/06/04 18:29:14;;;;;;;5.83;0.40;;;;;;;20.10;100.00;99857.31;1686986;83;21045;-59
2022/06/04 18:31:40;;;;;;;2.98;0.40;;;;;;;19.99;100.00;99854.13;1669195;83;22197;-59
2022/06/04 18:34:07;;;;;;;1.15;0.50;;;;;;;19.87;100.00;99862.02;1673322;83;21540;-58
2022/06/04 18:36:36;;;;;;;1.25;0.60;;;;;;;19.78;100.00;99863.67;1669391;83;21065;-58
2022/06/04 18:39:03;;;;;;;4.00;0.70;;;;;;;19.71;100.00;99864.31;1647410;83;21151;-59
2022/06/04 18:41:30;;;;;;;4.30;0.90;;;;;;;19.61;100.00;99863.72;1667806;83;21065;-58
2022/06/04 18:54:59;;;;;;;3.05;0.70;;;;;;;19.00;100.00;99867.88;1618647;85;21062;-59
2022/06/04 18:57:26;;;;;;;2.75;0.70;;;;;;;18.84;100.00;99872.34;1634778;85;21146;-58
2022/06/04 18:59:58;;;;;;;2.55;1.15;;;;;;;18.74;100.00;99866.38;1660012;84;21508;-58
2022/06/04 19:02:26;;;;;;;5.75;0.62;;;;;;;18.64;100.00;99865.37;1653322;84;21101;-58
2022/06/04 19:04:54;;;;;;;4.80;0.60;;;;;;;18.53;100.00;99863.48;1682362;83;21228;-58
2022/06/04 19:10:07;;;;;;;0.65;0.55;;;;;;;18.37;100.00;99863.80;1659324;84;21136;-57
2022/06/04 19:15:20;;;;;;;2.98;0.72;;;;;;;18.23;100.00;99867.23;1692742;82;21022;-59
2022/06/04 19:17:47;;;;;;;1.35;0.80;;;;;;;18.14;100.00;99869.69;1690464;82;21695;-58
2022/06/04 19:25:44;;;;;;;0.80;0.60;;;;;;;17.91;100.00;99856.98;1698014;82;21076;-58
2022/06/04 19:28:12;;;;;;;0.62;0.50;;;;;;;17.81;100.00;99850.50;1689754;82;21084;-59
2022/06/04 19:30:39;;;;;;;1.87;0.62;;;;;;;17.74;100.00;99851.96;1689230;82;21542;-59
2022/06/04 19:33:07;;;;;;;2.30;0.53;;;;;;;17.67;100.00;99850.20;1692544;82;21371;-59
2022/06/04 19:35:34;;;;;;;0.50;0.42;;;;;;;17.58;100.00;99846.78;1655773;84;21971;-59
2022/06/04 19:38:02;;;;;;;0.75;0.53;;;;;;;17.52;100.00;99849.97;1687162;82;21089;-59
2022/06/04 19:40:30;;;;;;;1.00;0.60;;;;;;;17.46;100.00;99843.61;1688001;82;21093;-57
2022/06/04 19:42:58;;;;;;;1.55;0.60;;;;;;;17.38;100.00;99846.91;1687394;82;22215;-57
2022/06/04 19:45:29;;;;;;;3.40;0.60;;;;;;;17.29;100.00;99847.59;1689622;82;21541;-57
2022/06/04 19:47:56;;;;;;;1.98;0.60;;;;;;;17.20;100.00;99848.27;1697080;82;22126;-57
2022/06/04 19:50:25;;;;;;;1.10;0.72;;;;;;;17.12;100.00;99847.97;1690109;82;21234;-57
2022/06/04 19:55:36;;;;;;;;;;;;;;;16.99;100.00;99846.66;1696457;82;21093;-58
2022/06/04 19:58:03;;;;;;;1.17;0.82;;;;;;;16.92;100.00;99853.53;1694429;82;20209;-58
2022/06/04 20:00:29;;;;;;;2.45;1.05;;;;;;;16.76;100.00;99840.64;1691968;82;21116;-58
2022/06/04 20:02:56;;;;;;;3.47;0.95;;;;;;;16.76;100.00;99840.64;1698929;82;21159;-58
2022/06/04 20:05:23;;;;;;;1.92;0.80;;;;;;;16.69;100.00;99837.98;1697204;82;21072;-57
2022/06/04 20:07:51;;;;;;;1.57;0.90;;;;;;;16.60;100.00;99836.77;1686339;83;21119;-58
2022/06/04 20:10:20;;;;;;;1.72;0.82;;;;;;;16.59;100.00;99841.81;1693447;83;21029;-58
2022/06/04 20:12:47;;;;;;;2.70;0.80;;;;;;;16.58;100.00;99837.39;1687544;83;21115;-58
2022/06/04 20:15:15;;;;;;;2.12;0.90;;;;;;;16.59;100.00;99839.10;1691215;83;20954;-58
2022/06/04 20:17:43;;;;;;;2.15;1.00;;;;;;;16.62;100.00;99840.28;1690306;83;21006;-58
2022/06/04 20:20:16;;;;;;;1.25;0.75;;;;;;;16.64;100.00;99840.18;1687159;83;21179;-58
2022/06/04 20:22:43;;;;;;;3.72;0.85;;;;;;;16.62;100.00;99840.28;1689430;83;20977;-57
2022/06/04 20:25:10;;;;;;;2.45;0.70;;;;;;;16.56;100.00;99837.98;1683464;83;20912;-57
2022/06/04 20:27:39;;;;;;;3.42;0.60;;;;;;;16.50;100.00;99837.55;1689297;83;21037;-57
2022/06/04 20:30:11;;;;;;;1.22;0.60;;;;;;;16.42;100.00;99837.20;1666459;83;21100;-58
2022/06/04 20:32:40;;;;;;;2.37;0.70;;;;;;;16.33;100.00;99838.75;1689936;83;21123;-57
2022/06/04 20:35:28;;;;;;;0.90;0.70;;;;;;;16.21;100.00;99833.68;1689442;83;21094;-58
2022/06/04 20:37:55;;;;;;;3.83;0.70;;;;;;;16.12;100.00;99835.67;1749228;79;21071;-58
2022/06/04 20:40:22;;;;;;;0.50;0.50;;;;;;;15.98;100.00;99838.98;1757852;79;21462;-58
2022/06/04 20:42:49;;;;;;;2.87;0.60;;;;;;;15.88;100.00;99834.18;1756160;79;20988;-58
2022/06/04 20:45:18;;;;;;;3.25;0.60;;;;;;;15.85;100.00;99833.02;1749775;79;21835;-58
2022/06/04 20:47:45;;;;;;;2.45;0.70;;;;;;;15.84;100.00;99835.34;1754185;79;21067;-57
2022/06/04 20:50:14;;;;;;;1.32;0.53;;;;;;;15.85;100.00;99840.30;1754116;79;21078;-57
2022/06/04 20:52:41;;;;;;;1.35;0.60;;;;;;;15.84;100.00;99834.48;1754028;79;21044;-58
2022/06/04 20:55:12;;;;;;;1.00;0.60;;;;;;;15.83;100.00;99834.09;1751018;79;20963;-58
2022/06/04 20:57:40;;;;;;;2.25;0.60;;;;;;;15.82;100.00;99833.73;1748328;79;21371;-57
2022/06/04 21:00:08;;;;;;;0.85;0.55;;;;;;;15.83;100.00;99830.89;1745743;80;21526;-58
2022/06/04 21:02:36;;;;;;;0.60;0.50;;;;;;;15.84;100.00;99829.92;1739127;80;21025;-58
2022/06/04 21:05:03;;;;;;;2.45;0.60;;;;;;;15.78;100.00;99828.99;1743495;80;20977;-58
2022/06/04 21:07:31;;;;;;;0.75;0.60;;;;;;;15.76;100.00;99820.56;1738015;80;21110;-57
2022/06/04 21:09:58;;;;;;;1.57;0.60;;;;;;;15.74;100.00;99818.44;1733290;80;21492;-58
2022/06/04 21:12:24;;;;;;;1.17;0.50;;;;;;;15.72;100.00;99816.34;1737126;80;21048;-57
2022/06/04 21:14:56;;;;;;;0.70;0.60;;;;;;;15.71;100.00;99809.16;1736154;80;21054;-58
2022/06/04 21:17:20;;;;;;;1.17;0.50;;;;;;;15.68;100.00;99806.16;1737464;80;21227;-57
2022/06/04 21:19:47;;;;;;;1.67;0.45;;;;;;;15.66;100.00;99801.32;1748211;80;22410;-57
2022/06/04 21:22:13;;;;;;;3.25;0.40;;;;;;;15.63;100.00;99789.34;1740062;80;21878;-57
2022/06/04 21:24:40;;;;;;;1.60;0.50;;;;;;;15.60;100.00;99782.76;1741372;80;21330;-58
2022/06/04 21:27:06;;;;;;;1.22;0.40;;;;;;;15.57;100.00;99788.37;1735914;80;21041;-57
2022/06/04 21:29:33;;;;;;;1.00;0.40;;;;;;;15.52;100.00;99785.09;1741588;80;21048;-57
2022/06/04 21:32:00;;;;;;;0.88;0.50;;;;;;;15.43;100.00;99783.88;1742192;80;21083;-57
2022/06/04 21:39:57;;;;;;;1.10;0.50;;;;;;;15.24;100.00;99785.20;1717962;80;21522;-56
2022/06/04 21:42:23;;;;;;;0.50;0.40;;;;;;;15.24;100.00;99786.08;1723589;80;21374;-56
2022/06/04 21:44:50;;;;;;;0.50;0.50;;;;;;;15.24;100.00;99781.13;1721197;80;21054;-56
2022/06/04 21:47:16;;;;;;;0.55;0.50;;;;;;;15.26;100.00;99793.63;1722295;80;21233;-56
2022/06/04 21:49:43;;;;;;;2.05;0.57;;;;;;;15.25;100.00;99782.88;1721009;82;21070;-56
2022/06/04 21:52:10;;;;;;;0.62;0.60;;;;;;;15.20;100.00;99784.55;1720089;80;21448;-56
2022/06/04 21:54:37;;;;;;;3.15;0.50;;;;;;;15.15;100.00;99786.68;1720569;80;21014;-57
2022/06/04 21:57:06;;;;;;;3.08;0.50;;;;;;;15.11;100.00;99781.09;1721773;80;21066;-56
2022/06/04 22:01:28;;;;;;;1.50;0.50;;;;;;;15.12;100.00;99783.71;1775733;78;22636;-56
2022/06/04 22:03:57;;;;;;;1.98;0.60;;;;;;;15.10;100.00;99787.48;1678660;83;22146;-56
2022/06/04 22:06:24;;;;;;;0.95;0.50;;;;;;;15.10;100.00;99777.52;1687864;83;21318;-56
2022/06/04 22:08:51;;;;;;;2.10;0.50;;;;;;;15.12;100.00;99777.42;1691943;83;20989;-56
2022/06/04 22:11:20;;;;;;;1.67;0.50;;;;;;;15.12;100.00;99777.42;1700613;83;21288;-56
2022/06/04 22:13:53;;;;;;;3.25;0.50;;;;;;;15.11;100.00;99772.48;1711317;81;21281;-57
2022/06/04 22:16:22;;;;;;;0.40;0.40;;;;;;;15.12;100.00;99770.64;1706707;81;20969;-56
2022/06/04 22:18:49;;;;;;;2.60;0.50;;;;;;;15.12;100.00;99766.09;1700318;83;21609;-55
2022/06/04 22:21:20;;;;;;;0.72;0.50;;;;;;;15.10;100.00;99764.44;1696402;83;21003;-56
2022/06/04 22:23:47;;;;;;;0.68;0.53;;;;;;;15.08;100.00;99766.38;1702817;83;21634;-56
2022/06/04 22:26:15;;;;;;;0.70;0.60;;;;;;;15.02;100.00;99766.31;1704122;83;21098;-56
2022/06/04 22:28:42;;;;;;;1.10;0.50;;;;;;;14.96;100.00;99764.50;1702785;83;21128;-57
2022/06/04 22:31:09;;;;;;;0.65;0.50;;;;;;;14.86;100.00;99766.06;1690974;83;22511;-56
2022/06/04 22:33:36;;;;;;;0.60;0.47;;;;;;;14.76;100.00;99759.02;1703620;82;21166;-56
2022/06/04 22:36:04;;;;;;;1.67;0.40;;;;;;;14.67;100.00;99748.78;1710619;82;21022;-56
2022/06/04 22:38:31;;;;;;;0.60;0.37;;;;;;;14.64;100.00;99750.32;1713783;81;21424;-57
2022/06/04 22:41:08;;;;;;;0.62;0.40;;;;;;;14.66;100.00;99751.09;1714811;81;21529;-57
2022/06/04 22:43:40;;;;;;;0.68;0.50;;;;;;;14.69;100.00;99749.55;1706515;81;21130;-57
2022/06/04 22:46:14;;;;;;;1.87;0.50;;;;;;;14.73;100.00;99741.59;1711300;81;21139;-57
2022/06/04 22:48:41;;;;;;;2.15;0.70;;;;;;;14.76;100.00;99738.70;1709498;81;21140;-56
2022/06/04 22:51:07;;;;;;;1.60;0.50;;;;;;;14.81;100.00;99741.09;1710962;81;21089;-57